createdAt,value
2017-10-21T20:13:56.890Z,979.21
2017-10-21T20:14:56.859Z,979.22
2017-10-21T20:16:51.430Z,979.24
2017-10-21T20:17:51.429Z,979.18
2017-10-21T20:18:51.430Z,979.22
2017-10-21T20:19:51.414Z,979.22
2017-10-21T20:20:51.412Z,979.20
2017-10-21T20:21:51.416Z,979.16
2017-10-21T20:22:51.414Z,979.16
2017-10-21T20:23:51.413Z,979.10
2017-10-21T20:24:51.426Z,979.05
2017-10-21T20:25:51.410Z,979.06
2017-10-21T20:26:51.417Z,979.04
2017-10-21T20:27:51.413Z,979.01
2017-10-21T20:28:51.416Z,979.01
2017-10-21T20:29:51.417Z,979.01
2017-10-21T20:30:51.414Z,978.98
2017-10-21T20:31:51.414Z,978.97
2017-10-21T20:32:51.415Z,978.99
2017-10-21T20:33:51.412Z,978.96
2017-10-21T20:34:51.410Z,979.00
2017-10-21T20:35:51.415Z,978.96
2017-10-21T20:36:51.416Z,978.96
2017-10-21T20:37:51.417Z,978.89
2017-10-21T20:38:51.416Z,978.82
2017-10-21T20:39:51.412Z,978.82
2017-10-21T20:40:51.426Z,978.81
2017-10-21T20:41:51.416Z,978.75
2017-10-21T20:42:51.419Z,978.75
2017-10-21T20:43:51.418Z,978.76
2017-10-21T20:44:51.416Z,978.78
2017-10-21T20:45:51.487Z,978.82
2017-10-21T20:46:51.418Z,978.86
2017-10-21T20:47:51.416Z,978.86
2017-10-21T20:48:51.417Z,978.85
2017-10-21T20:49:51.425Z,978.80
2017-10-21T20:50:51.419Z,978.81
2017-10-21T20:51:51.424Z,978.75
2017-10-21T20:52:51.416Z,978.76
2017-10-21T20:53:51.416Z,978.79
2017-10-21T20:54:51.416Z,978.80
2017-10-21T20:55:51.412Z,978.78
2017-10-21T20:56:51.414Z,978.78
2017-10-21T20:57:51.417Z,978.78
2017-10-21T20:58:51.414Z,978.75
2017-10-21T20:59:51.416Z,978.77
2017-10-21T21:00:51.476Z,978.72
2017-10-21T21:01:51.414Z,978.71
2017-10-21T21:02:51.417Z,978.72
2017-10-21T21:03:51.417Z,978.64
2017-10-21T21:04:51.418Z,978.63
2017-10-21T21:05:51.417Z,978.58
2017-10-21T21:06:51.420Z,978.55
2017-10-21T21:07:51.417Z,978.55
2017-10-21T21:08:51.417Z,978.54
2017-10-21T21:09:51.415Z,978.57
2017-10-21T21:10:51.414Z,978.59
2017-10-21T21:11:51.415Z,978.62
2017-10-21T21:12:51.415Z,978.65
2017-10-21T21:13:51.436Z,978.67
2017-10-21T21:14:51.419Z,978.67
2017-10-21T21:15:51.413Z,978.70
2017-10-21T21:16:51.417Z,978.74
2017-10-21T21:17:51.415Z,978.73
2017-10-21T21:18:51.415Z,978.76
2017-10-21T21:19:51.415Z,978.77
2017-10-21T21:20:51.467Z,978.77
2017-10-21T21:21:51.418Z,978.77
2017-10-21T21:22:51.426Z,978.74
2017-10-21T21:23:51.416Z,978.75
2017-10-21T21:24:51.413Z,978.76
2017-10-21T21:25:51.416Z,978.77
2017-10-21T21:26:51.453Z,978.81
2017-10-21T21:27:51.417Z,978.83
2017-10-21T21:28:51.412Z,978.83
2017-10-21T21:29:51.414Z,978.78
2017-10-21T21:30:51.415Z,978.85
2017-10-21T21:31:51.414Z,978.82
2017-10-21T21:32:51.414Z,978.78
2017-10-21T21:33:51.414Z,978.80
2017-10-21T21:34:51.415Z,978.79
2017-10-21T21:35:51.416Z,978.74
2017-10-21T21:36:51.417Z,978.74
2017-10-21T21:37:51.413Z,978.74
2017-10-21T21:38:51.414Z,978.74
2017-10-21T21:39:51.414Z,978.75
2017-10-21T21:40:51.413Z,978.73
2017-10-21T21:41:51.446Z,978.77
2017-10-21T21:42:51.415Z,978.82
2017-10-21T21:43:51.480Z,978.83
2017-10-21T21:44:51.413Z,978.84
2017-10-21T21:45:51.416Z,978.78
2017-10-21T21:46:51.415Z,978.80
2017-10-21T21:47:51.408Z,978.76
2017-10-21T21:48:51.421Z,978.77
2017-10-21T21:49:51.416Z,978.80
2017-10-21T21:50:51.413Z,978.75
2017-10-21T21:51:51.420Z,978.75
2017-10-21T21:52:51.415Z,978.77
2017-10-21T21:53:51.414Z,978.76
2017-10-21T21:54:51.415Z,978.78
2017-10-21T21:55:51.414Z,978.71
2017-10-21T21:56:51.416Z,978.71
2017-10-21T21:57:51.414Z,978.64
2017-10-21T21:58:51.414Z,978.62
2017-10-21T21:59:51.411Z,978.62
2017-10-21T22:00:51.414Z,978.65
2017-10-21T22:01:51.474Z,978.75
2017-10-21T22:02:51.492Z,978.73
2017-10-21T22:03:51.431Z,978.73
2017-10-21T22:04:51.431Z,978.69
2017-10-21T22:05:51.414Z,978.66
2017-10-21T22:06:51.416Z,978.64
2017-10-21T22:07:51.410Z,978.64
2017-10-21T22:08:51.447Z,978.64
2017-10-21T22:09:51.414Z,978.66
2017-10-21T22:10:51.414Z,978.63
2017-10-21T22:11:51.412Z,978.63
2017-10-21T22:12:51.431Z,978.58
2017-10-21T22:13:51.433Z,978.59
2017-10-21T22:14:51.439Z,978.60
2017-10-21T22:15:51.413Z,978.58
2017-10-21T22:16:51.420Z,978.56
2017-10-21T22:17:51.419Z,978.55
2017-10-21T22:18:51.413Z,978.57
2017-10-21T22:19:51.414Z,978.51
2017-10-21T22:20:51.430Z,978.55
2017-10-21T22:21:51.415Z,978.53
2017-10-21T22:22:51.413Z,978.57
2017-10-21T22:23:51.413Z,978.57
2017-10-21T22:24:51.407Z,978.57
2017-10-21T22:25:51.414Z,978.61
2017-10-21T22:26:51.418Z,978.58
2017-10-21T22:27:51.414Z,978.61
2017-10-21T22:28:51.416Z,978.65
2017-10-21T22:29:51.415Z,978.64
2017-10-21T22:30:51.416Z,978.69
2017-10-21T22:31:51.413Z,978.73
2017-10-21T22:32:51.414Z,978.74
2017-10-21T22:33:51.414Z,978.77
2017-10-21T22:34:51.432Z,978.79
2017-10-21T22:35:51.414Z,978.85
2017-10-21T22:36:51.413Z,978.82
2017-10-21T22:37:51.412Z,978.85
2017-10-21T22:38:51.417Z,978.87
2017-10-21T22:39:51.411Z,978.90
2017-10-21T22:40:51.410Z,978.96
2017-10-21T22:41:51.413Z,978.97
2017-10-21T22:42:51.411Z,978.97
2017-10-21T22:43:51.414Z,979.01
2017-10-21T22:44:51.413Z,979.07
2017-10-21T22:45:51.412Z,979.12
2017-10-21T22:46:51.410Z,979.10
2017-10-21T22:47:51.409Z,979.17
2017-10-21T22:48:51.415Z,979.12
2017-10-21T22:49:51.408Z,979.07
2017-10-21T22:50:51.407Z,979.19
2017-10-21T22:51:51.410Z,979.14
2017-10-21T22:52:51.407Z,979.21
2017-10-21T22:53:51.402Z,979.21
2017-10-21T22:54:51.404Z,979.33
2017-10-21T22:55:51.406Z,979.31
2017-10-21T22:56:51.408Z,979.32
2017-10-21T22:57:51.404Z,979.33
2017-10-21T22:58:51.404Z,979.42
2017-10-21T22:59:51.400Z,979.44
2017-10-21T23:00:51.401Z,979.50
2017-10-21T23:01:51.400Z,979.51
2017-10-21T23:02:51.400Z,979.56
2017-10-21T23:03:51.399Z,979.59
2017-10-21T23:04:51.399Z,979.59
2017-10-21T23:05:51.395Z,979.70
2017-10-21T23:06:51.396Z,979.72
2017-10-21T23:07:51.408Z,979.74
2017-10-21T23:08:51.397Z,979.78
2017-10-21T23:09:51.394Z,979.83
2017-10-21T23:10:51.392Z,979.88
2017-10-21T23:11:51.388Z,979.88
2017-10-21T23:12:51.388Z,979.90
2017-10-21T23:13:51.389Z,979.86
2017-10-21T23:14:51.389Z,979.85
2017-10-21T23:15:51.385Z,979.82
2017-10-21T23:16:51.384Z,979.84
2017-10-21T23:17:51.383Z,979.79
2017-10-21T23:18:51.380Z,979.77
2017-10-21T23:19:51.378Z,979.78
2017-10-21T23:20:51.377Z,979.83
2017-10-21T23:21:51.378Z,979.77
2017-10-21T23:22:51.377Z,979.80
2017-10-21T23:23:51.372Z,979.80
2017-10-21T23:24:51.372Z,979.80
2017-10-21T23:25:51.371Z,979.77
2017-10-21T23:26:51.373Z,979.75
2017-10-21T23:27:51.370Z,979.80
2017-10-21T23:28:51.365Z,979.86
2017-10-21T23:29:51.366Z,979.91
2017-10-21T23:30:51.367Z,979.98
2017-10-21T23:31:51.362Z,979.98
2017-10-21T23:32:51.361Z,980.01
2017-10-21T23:33:51.360Z,979.99
2017-10-21T23:34:51.359Z,979.96
2017-10-21T23:35:51.354Z,979.91
2017-10-21T23:36:51.355Z,979.89
2017-10-21T23:37:51.351Z,979.91
2017-10-21T23:38:51.354Z,979.93
2017-10-21T23:39:51.353Z,979.91
2017-10-21T23:40:51.350Z,979.92
2017-10-21T23:41:51.352Z,979.95
2017-10-21T23:42:51.353Z,979.98
2017-10-21T23:43:51.343Z,979.96
2017-10-21T23:44:51.349Z,979.97
2017-10-21T23:45:51.342Z,979.94
2017-10-21T23:46:51.340Z,979.90
2017-10-21T23:47:51.339Z,979.89
2017-10-21T23:48:51.338Z,979.92
2017-10-21T23:49:51.336Z,979.82
2017-10-21T23:50:51.336Z,979.87
2017-10-21T23:51:51.333Z,979.81
2017-10-21T23:52:51.332Z,979.80
2017-10-21T23:53:51.332Z,979.76
2017-10-21T23:54:51.328Z,979.81
2017-10-21T23:55:51.331Z,979.82
2017-10-21T23:56:51.327Z,979.84
2017-10-21T23:57:51.324Z,979.86
2017-10-21T23:58:51.325Z,979.80
2017-10-21T23:59:51.321Z,979.81
